sensor_id;sensor_type;location;lat;lon;timestamp;temperature;humidity
10294;DHT22;5192;50.328;7.610;2023-02-19T00:02:13;9.50;57.10
10294;DHT22;5192;50.328;7.610;2023-02-19T00:04:40;9.50;56.90
10294;DHT22;5192;50.328;7.610;2023-02-19T00:07:06;9.60;55.90
10294;DHT22;5192;50.328;7.610;2023-02-19T00:09:32;9.60;56.00
10294;DHT22;5192;50.328;7.610;2023-02-19T00:11:58;9.60;56.10
10294;DHT22;5192;50.328;7.610;2023-02-19T00:14:25;9.60;56.40
10294;DHT22;5192;50.328;7.610;2023-02-19T00:16:50;9.60;55.80
10294;DHT22;5192;50.328;7.610;2023-02-19T00:19:20;9.60;56.60
10294;DHT22;5192;50.328;7.610;2023-02-19T00:21:52;9.50;58.70
10294;DHT22;5192;50.328;7.610;2023-02-19T00:24:20;9.50;59.60
10294;DHT22;5192;50.328;7.610;2023-02-19T00:26:47;9.40;60.40
10294;DHT22;5192;50.328;7.610;2023-02-19T00:29:20;9.50;60.80
10294;DHT22;5192;50.328;7.610;2023-02-19T00:31:48;9.40;60.00
10294;DHT22;5192;50.328;7.610;2023-02-19T00:34:15;9.50;60.10
10294;DHT22;5192;50.328;7.610;2023-02-19T00:36:42;9.50;59.40
10294;DHT22;5192;50.328;7.610;2023-02-19T00:39:10;9.50;62.70
10294;DHT22;5192;50.328;7.610;2023-02-19T00:41:38;9.40;65.70
10294;DHT22;5192;50.328;7.610;2023-02-19T00:44:07;9.40;68.70
10294;DHT22;5192;50.328;7.610;2023-02-19T00:46:52;9.40;71.60
10294;DHT22;5192;50.328;7.610;2023-02-19T00:49:23;9.20;72.30
10294;DHT22;5192;50.328;7.610;2023-02-19T00:51:51;9.20;74.10
10294;DHT22;5192;50.328;7.610;2023-02-19T00:54:18;9.20;74.00
10294;DHT22;5192;50.328;7.610;2023-02-19T00:56:46;9.20;68.20
10294;DHT22;5192;50.328;7.610;2023-02-19T00:59:14;9.20;70.20
10294;DHT22;5192;50.328;7.610;2023-02-19T01:01:41;9.20;69.20
10294;DHT22;5192;50.328;7.610;2023-02-19T01:04:08;9.20;69.80
10294;DHT22;5192;50.328;7.610;2023-02-19T01:06:36;9.30;67.10
10294;DHT22;5192;50.328;7.610;2023-02-19T01:09:04;9.30;66.50
10294;DHT22;5192;50.328;7.610;2023-02-19T01:11:31;9.30;66.10
10294;DHT22;5192;50.328;7.610;2023-02-19T01:13:58;9.30;66.10
10294;DHT22;5192;50.328;7.610;2023-02-19T01:16:25;9.30;67.70
10294;DHT22;5192;50.328;7.610;2023-02-19T01:18:52;9.30;68.00
10294;DHT22;5192;50.328;7.610;2023-02-19T01:21:26;9.30;66.90
10294;DHT22;5192;50.328;7.610;2023-02-19T01:23:52;9.30;67.30
10294;DHT22;5192;50.328;7.610;2023-02-19T01:26:23;9.30;66.00
10294;DHT22;5192;50.328;7.610;2023-02-19T01:28:52;9.30;65.10
10294;DHT22;5192;50.328;7.610;2023-02-19T01:31:22;9.30;64.30
10294;DHT22;5192;50.328;7.610;2023-02-19T01:33:56;9.30;64.70
10294;DHT22;5192;50.328;7.610;2023-02-19T01:36:24;9.30;64.20
10294;DHT22;5192;50.328;7.610;2023-02-19T01:38:49;9.30;63.70
10294;DHT22;5192;50.328;7.610;2023-02-19T01:41:20;9.30;63.60
10294;DHT22;5192;50.328;7.610;2023-02-19T01:44:06;9.40;62.10
10294;DHT22;5192;50.328;7.610;2023-02-19T01:46:35;9.40;62.90
10294;DHT22;5192;50.328;7.610;2023-02-19T01:49:25;9.40;60.70
10294;DHT22;5192;50.328;7.610;2023-02-19T01:52:04;9.40;61.20
10294;DHT22;5192;50.328;7.610;2023-02-19T01:54:35;9.40;61.00
10294;DHT22;5192;50.328;7.610;2023-02-19T01:57:06;9.40;61.30
10294;DHT22;5192;50.328;7.610;2023-02-19T01:59:33;9.30;60.90
10294;DHT22;5192;50.328;7.610;2023-02-19T02:02:00;9.40;61.20
10294;DHT22;5192;50.328;7.610;2023-02-19T02:04:32;9.30;61.00
10294;DHT22;5192;50.328;7.610;2023-02-19T02:07:02;9.40;60.50
10294;DHT22;5192;50.328;7.610;2023-02-19T02:09:48;9.30;61.00
10294;DHT22;5192;50.328;7.610;2023-02-19T02:12:33;9.30;60.90
10294;DHT22;5192;50.328;7.610;2023-02-19T02:15:00;9.40;60.30
10294;DHT22;5192;50.328;7.610;2023-02-19T02:17:54;9.40;58.40
10294;DHT22;5192;50.328;7.610;2023-02-19T02:21:05;9.50;58.30
10294;DHT22;5192;50.328;7.610;2023-02-19T02:27:05;9.50;58.20
10294;DHT22;5192;50.328;7.610;2023-02-19T02:30:16;9.50;59.40
10294;DHT22;5192;50.328;7.610;2023-02-19T02:33:20;9.40;59.80
10294;DHT22;5192;50.328;7.610;2023-02-19T02:36:09;9.40;59.80
10294;DHT22;5192;50.328;7.610;2023-02-19T02:38:46;9.40;60.50
10294;DHT22;5192;50.328;7.610;2023-02-19T02:41:14;9.40;59.40
10294;DHT22;5192;50.328;7.610;2023-02-19T02:43:41;9.30;59.80
10294;DHT22;5192;50.328;7.610;2023-02-19T02:46:12;9.30;60.10
10294;DHT22;5192;50.328;7.610;2023-02-19T02:49:19;9.40;60.60
10294;DHT22;5192;50.328;7.610;2023-02-19T02:51:53;9.40;58.20
10294;DHT22;5192;50.328;7.610;2023-02-19T02:54:26;9.40;59.00
10294;DHT22;5192;50.328;7.610;2023-02-19T02:57:13;9.40;59.90
10294;DHT22;5192;50.328;7.610;2023-02-19T02:59:41;9.50;60.60
10294;DHT22;5192;50.328;7.610;2023-02-19T03:02:32;9.40;60.70
10294;DHT22;5192;50.328;7.610;2023-02-19T03:05:19;9.50;60.40
10294;DHT22;5192;50.328;7.610;2023-02-19T03:08:17;9.50;60.80
10294;DHT22;5192;50.328;7.610;2023-02-19T03:10:54;9.40;63.50
10294;DHT22;5192;50.328;7.610;2023-02-19T03:13:46;9.40;64.90
10294;DHT22;5192;50.328;7.610;2023-02-19T03:16:45;9.50;66.20
10294;DHT22;5192;50.328;7.610;2023-02-19T03:19:34;9.40;67.60
10294;DHT22;5192;50.328;7.610;2023-02-19T03:25:19;9.30;67.40
10294;DHT22;5192;50.328;7.610;2023-02-19T03:28:08;9.30;69.00
10294;DHT22;5192;50.328;7.610;2023-02-19T03:30:48;9.40;65.40
10294;DHT22;5192;50.328;7.610;2023-02-19T03:33:21;9.40;65.40
10294;DHT22;5192;50.328;7.610;2023-02-19T03:35:59;9.40;64.40
10294;DHT22;5192;50.328;7.610;2023-02-19T03:41:42;9.50;60.10
10294;DHT22;5192;50.328;7.610;2023-02-19T03:44:35;9.60;58.10
10294;DHT22;5192;50.328;7.610;2023-02-19T03:47:32;9.60;55.90
10294;DHT22;5192;50.328;7.610;2023-02-19T03:50:29;9.60;57.20
10294;DHT22;5192;50.328;7.610;2023-02-19T03:53:10;9.60;55.40
10294;DHT22;5192;50.328;7.610;2023-02-19T03:55:43;9.70;51.40
10294;DHT22;5192;50.328;7.610;2023-02-19T03:58:41;9.70;52.00
10294;DHT22;5192;50.328;7.610;2023-02-19T04:04:31;9.60;53.40
10294;DHT22;5192;50.328;7.610;2023-02-19T04:07:02;9.60;53.60
10294;DHT22;5192;50.328;7.610;2023-02-19T04:09:42;9.60;54.10
10294;DHT22;5192;50.328;7.610;2023-02-19T04:12:11;9.60;51.90
10294;DHT22;5192;50.328;7.610;2023-02-19T04:14:45;9.60;53.40
10294;DHT22;5192;50.328;7.610;2023-02-19T04:17:24;9.60;54.70
10294;DHT22;5192;50.328;7.610;2023-02-19T04:19:53;9.60;52.20
10294;DHT22;5192;50.328;7.610;2023-02-19T04:22:23;9.60;51.30
10294;DHT22;5192;50.328;7.610;2023-02-19T04:24:54;9.70;49.10
10294;DHT22;5192;50.328;7.610;2023-02-19T04:27:22;9.70;49.00
10294;DHT22;5192;50.328;7.610;2023-02-19T04:29:47;9.70;49.50
10294;DHT22;5192;50.328;7.610;2023-02-19T04:32:14;9.70;50.00
10294;DHT22;5192;50.328;7.610;2023-02-19T04:34:40;9.70;51.00
10294;DHT22;5192;50.328;7.610;2023-02-19T04:37:06;9.70;51.50
10294;DHT22;5192;50.328;7.610;2023-02-19T04:39:34;9.60;51.80
10294;DHT22;5192;50.328;7.610;2023-02-19T04:42:04;9.60;53.90
10294;DHT22;5192;50.328;7.610;2023-02-19T04:44:32;9.50;54.60
10294;DHT22;5192;50.328;7.610;2023-02-19T04:47:02;9.50;55.60
10294;DHT22;5192;50.328;7.610;2023-02-19T04:49:28;9.50;56.00
10294;DHT22;5192;50.328;7.610;2023-02-19T04:51:55;9.50;56.30
10294;DHT22;5192;50.328;7.610;2023-02-19T04:54:22;9.50;55.20
10294;DHT22;5192;50.328;7.610;2023-02-19T04:56:49;9.50;55.50
10294;DHT22;5192;50.328;7.610;2023-02-19T04:59:16;9.60;53.20
10294;DHT22;5192;50.328;7.610;2023-02-19T05:01:43;9.60;54.30
10294;DHT22;5192;50.328;7.610;2023-02-19T05:04:10;9.60;53.30
10294;DHT22;5192;50.328;7.610;2023-02-19T05:06:38;9.50;53.50
10294;DHT22;5192;50.328;7.610;2023-02-19T05:09:05;9.60;49.50
10294;DHT22;5192;50.328;7.610;2023-02-19T05:11:33;9.60;50.70
10294;DHT22;5192;50.328;7.610;2023-02-19T05:14:00;9.50;49.70
10294;DHT22;5192;50.328;7.610;2023-02-19T05:16:27;9.50;48.80
10294;DHT22;5192;50.328;7.610;2023-02-19T05:18:55;9.60;48.90
10294;DHT22;5192;50.328;7.610;2023-02-19T05:21:22;9.60;47.60
10294;DHT22;5192;50.328;7.610;2023-02-19T05:23:48;9.60;47.40
10294;DHT22;5192;50.328;7.610;2023-02-19T05:26:21;9.50;47.70
10294;DHT22;5192;50.328;7.610;2023-02-19T05:28:50;9.60;49.80
10294;DHT22;5192;50.328;7.610;2023-02-19T05:31:19;9.40;55.90
10294;DHT22;5192;50.328;7.610;2023-02-19T05:33:47;9.30;57.70
10294;DHT22;5192;50.328;7.610;2023-02-19T05:36:19;9.30;60.70
10294;DHT22;5192;50.328;7.610;2023-02-19T05:38:50;9.20;64.90
10294;DHT22;5192;50.328;7.610;2023-02-19T05:41:20;9.10;66.50
10294;DHT22;5192;50.328;7.610;2023-02-19T05:43:47;9.10;68.50
10294;DHT22;5192;50.328;7.610;2023-02-19T05:46:16;9.00;70.40
10294;DHT22;5192;50.328;7.610;2023-02-19T05:48:45;8.90;71.40
10294;DHT22;5192;50.328;7.610;2023-02-19T05:51:14;9.00;68.30
10294;DHT22;5192;50.328;7.610;2023-02-19T05:53:42;9.00;69.80
10294;DHT22;5192;50.328;7.610;2023-02-19T05:58:57;9.10;64.60
10294;DHT22;5192;50.328;7.610;2023-02-19T06:01:26;9.10;62.90
10294;DHT22;5192;50.328;7.610;2023-02-19T06:03:52;9.00;64.90
10294;DHT22;5192;50.328;7.610;2023-02-19T06:06:21;9.00;65.30
10294;DHT22;5192;50.328;7.610;2023-02-19T06:08:48;9.10;61.40
10294;DHT22;5192;50.328;7.610;2023-02-19T06:11:16;9.10;62.50
10294;DHT22;5192;50.328;7.610;2023-02-19T06:13:43;9.10;62.90
10294;DHT22;5192;50.328;7.610;2023-02-19T06:16:10;9.10;60.20
10294;DHT22;5192;50.328;7.610;2023-02-19T06:18:37;9.10;60.50
10294;DHT22;5192;50.328;7.610;2023-02-19T06:21:07;9.10;61.30
10294;DHT22;5192;50.328;7.610;2023-02-19T06:23:34;9.10;62.50
10294;DHT22;5192;50.328;7.610;2023-02-19T06:26:15;9.20;59.90
10294;DHT22;5192;50.328;7.610;2023-02-19T06:28:52;9.10;59.30
10294;DHT22;5192;50.328;7.610;2023-02-19T06:31:20;9.10;59.60
10294;DHT22;5192;50.328;7.610;2023-02-19T06:33:48;9.10;57.40
10294;DHT22;5192;50.328;7.610;2023-02-19T06:36:17;9.10;56.90
10294;DHT22;5192;50.328;7.610;2023-02-19T06:38:45;9.10;55.30
10294;DHT22;5192;50.328;7.610;2023-02-19T06:41:12;9.10;55.00
10294;DHT22;5192;50.328;7.610;2023-02-19T06:43:39;9.10;54.10
10294;DHT22;5192;50.328;7.610;2023-02-19T06:46:06;9.20;52.50
10294;DHT22;5192;50.328;7.610;2023-02-19T06:48:37;9.10;52.60
10294;DHT22;5192;50.328;7.610;2023-02-19T06:51:04;9.20;50.90
10294;DHT22;5192;50.328;7.610;2023-02-19T06:53:32;9.20;48.50
10294;DHT22;5192;50.328;7.610;2023-02-19T06:56:02;9.20;48.50
10294;DHT22;5192;50.328;7.610;2023-02-19T06:58:30;9.30;48.70
10294;DHT22;5192;50.328;7.610;2023-02-19T07:00:57;9.30;49.20
10294;DHT22;5192;50.328;7.610;2023-02-19T07:03:25;9.30;49.20
10294;DHT22;5192;50.328;7.610;2023-02-19T07:05:54;9.30;51.60
10294;DHT22;5192;50.328;7.610;2023-02-19T07:08:22;9.30;56.10
10294;DHT22;5192;50.328;7.610;2023-02-19T07:10:58;9.20;57.70
10294;DHT22;5192;50.328;7.610;2023-02-19T07:13:24;9.10;60.90
10294;DHT22;5192;50.328;7.610;2023-02-19T07:16:06;9.00;63.80
10294;DHT22;5192;50.328;7.610;2023-02-19T07:18:39;8.90;64.30
10294;DHT22;5192;50.328;7.610;2023-02-19T07:21:10;8.90;65.00
10294;DHT22;5192;50.328;7.610;2023-02-19T07:23:39;8.90;64.20
10294;DHT22;5192;50.328;7.610;2023-02-19T07:26:23;8.80;64.50
10294;DHT22;5192;50.328;7.610;2023-02-19T07:28:51;8.80;64.60
10294;DHT22;5192;50.328;7.610;2023-02-19T07:31:20;8.80;64.80
10294;DHT22;5192;50.328;7.610;2023-02-19T07:33:47;8.80;64.20
10294;DHT22;5192;50.328;7.610;2023-02-19T07:36:14;8.80;63.40
10294;DHT22;5192;50.328;7.610;2023-02-19T07:38:43;8.80;61.80
10294;DHT22;5192;50.328;7.610;2023-02-19T07:41:12;8.90;62.70
10294;DHT22;5192;50.328;7.610;2023-02-19T07:43:38;8.90;60.20
10294;DHT22;5192;50.328;7.610;2023-02-19T07:46:07;8.90;59.60
10294;DHT22;5192;50.328;7.610;2023-02-19T07:48:39;8.90;59.00
10294;DHT22;5192;50.328;7.610;2023-02-19T07:51:18;9.00;59.90
10294;DHT22;5192;50.328;7.610;2023-02-19T07:53:45;9.00;55.80
10294;DHT22;5192;50.328;7.610;2023-02-19T07:56:12;9.00;59.30
10294;DHT22;5192;50.328;7.610;2023-02-19T07:58:39;9.00;58.70
10294;DHT22;5192;50.328;7.610;2023-02-19T08:01:18;9.10;57.10
10294;DHT22;5192;50.328;7.610;2023-02-19T08:04:10;9.20;55.10
10294;DHT22;5192;50.328;7.610;2023-02-19T08:06:38;9.20;55.20
10294;DHT22;5192;50.328;7.610;2023-02-19T08:09:05;9.20;49.80
10294;DHT22;5192;50.328;7.610;2023-02-19T08:11:32;9.40;48.20
10294;DHT22;5192;50.328;7.610;2023-02-19T08:14:16;9.30;47.40
10294;DHT22;5192;50.328;7.610;2023-02-19T08:16:53;9.30;44.90
10294;DHT22;5192;50.328;7.610;2023-02-19T08:19:20;9.30;44.00
10294;DHT22;5192;50.328;7.610;2023-02-19T08:21:48;9.30;40.80
10294;DHT22;5192;50.328;7.610;2023-02-19T08:24:16;9.30;42.10
10294;DHT22;5192;50.328;7.610;2023-02-19T08:26:43;9.40;43.60
10294;DHT22;5192;50.328;7.610;2023-02-19T08:29:09;9.40;41.40
10294;DHT22;5192;50.328;7.610;2023-02-19T08:31:35;9.40;42.30
10294;DHT22;5192;50.328;7.610;2023-02-19T08:34:04;9.40;41.90
10294;DHT22;5192;50.328;7.610;2023-02-19T08:36:29;9.40;42.90
10294;DHT22;5192;50.328;7.610;2023-02-19T08:38:56;9.40;40.50
10294;DHT22;5192;50.328;7.610;2023-02-19T08:41:24;9.50;42.20
10294;DHT22;5192;50.328;7.610;2023-02-19T08:43:52;9.50;42.10
10294;DHT22;5192;50.328;7.610;2023-02-19T08:46:18;9.50;42.40
10294;DHT22;5192;50.328;7.610;2023-02-19T08:48:45;9.50;42.20
10294;DHT22;5192;50.328;7.610;2023-02-19T08:51:12;9.60;42.90
10294;DHT22;5192;50.328;7.610;2023-02-19T08:53:39;9.60;46.00
10294;DHT22;5192;50.328;7.610;2023-02-19T08:56:10;9.60;43.70
10294;DHT22;5192;50.328;7.610;2023-02-19T08:58:36;9.60;43.00
10294;DHT22;5192;50.328;7.610;2023-02-19T09:01:06;9.50;43.50
10294;DHT22;5192;50.328;7.610;2023-02-19T09:03:33;9.50;43.00
10294;DHT22;5192;50.328;7.610;2023-02-19T09:06:00;9.50;45.60
10294;DHT22;5192;50.328;7.610;2023-02-19T09:08:26;9.50;42.80
10294;DHT22;5192;50.328;7.610;2023-02-19T09:11:03;9.50;46.90
10294;DHT22;5192;50.328;7.610;2023-02-19T09:13:33;9.50;49.40
10294;DHT22;5192;50.328;7.610;2023-02-19T09:16:02;9.40;57.50
10294;DHT22;5192;50.328;7.610;2023-02-19T09:18:29;9.30;61.90
10294;DHT22;5192;50.328;7.610;2023-02-19T09:21:02;9.20;64.80
10294;DHT22;5192;50.328;7.610;2023-02-19T09:23:32;9.20;64.20
10294;DHT22;5192;50.328;7.610;2023-02-19T09:26:00;9.10;64.10
10294;DHT22;5192;50.328;7.610;2023-02-19T09:28:29;9.10;66.30
10294;DHT22;5192;50.328;7.610;2023-02-19T09:30:56;9.10;61.70
10294;DHT22;5192;50.328;7.610;2023-02-19T09:33:24;9.20;61.30
10294;DHT22;5192;50.328;7.610;2023-02-19T09:35:51;9.20;63.50
10294;DHT22;5192;50.328;7.610;2023-02-19T09:38:19;9.20;65.80
10294;DHT22;5192;50.328;7.610;2023-02-19T09:40:46;9.30;62.10
10294;DHT22;5192;50.328;7.610;2023-02-19T09:43:17;9.40;60.80
10294;DHT22;5192;50.328;7.610;2023-02-19T09:45:46;9.30;53.70
10294;DHT22;5192;50.328;7.610;2023-02-19T09:48:14;9.40;53.10
10294;DHT22;5192;50.328;7.610;2023-02-19T09:50:47;9.50;55.80
10294;DHT22;5192;50.328;7.610;2023-02-19T09:53:28;9.60;51.30
10294;DHT22;5192;50.328;7.610;2023-02-19T09:56:06;9.60;49.80
10294;DHT22;5192;50.328;7.610;2023-02-19T09:58:56;9.60;39.00
10294;DHT22;5192;50.328;7.610;2023-02-19T10:01:27;9.70;37.80
10294;DHT22;5192;50.328;7.610;2023-02-19T10:03:54;9.80;40.00
10294;DHT22;5192;50.328;7.610;2023-02-19T10:06:27;9.90;36.70
10294;DHT22;5192;50.328;7.610;2023-02-19T10:09:22;9.90;37.00
10294;DHT22;5192;50.328;7.610;2023-02-19T10:11:48;10.10;37.20
10294;DHT22;5192;50.328;7.610;2023-02-19T10:17:04;10.30;33.30
10294;DHT22;5192;50.328;7.610;2023-02-19T10:19:33;10.30;31.80
10294;DHT22;5192;50.328;7.610;2023-02-19T10:22:02;10.30;30.30
10294;DHT22;5192;50.328;7.610;2023-02-19T10:24:31;10.30;30.70
10294;DHT22;5192;50.328;7.610;2023-02-19T10:26:59;10.40;29.50
10294;DHT22;5192;50.328;7.610;2023-02-19T10:29:27;10.40;28.90
10294;DHT22;5192;50.328;7.610;2023-02-19T10:32:16;10.40;29.50
10294;DHT22;5192;50.328;7.610;2023-02-19T10:34:47;10.50;29.10
10294;DHT22;5192;50.328;7.610;2023-02-19T10:37:16;10.50;30.50
10294;DHT22;5192;50.328;7.610;2023-02-19T10:39:45;10.60;29.20
10294;DHT22;5192;50.328;7.610;2023-02-19T10:42:18;10.50;26.30
10294;DHT22;5192;50.328;7.610;2023-02-19T10:44:48;10.40;27.20
10294;DHT22;5192;50.328;7.610;2023-02-19T10:47:19;10.50;26.90
10294;DHT22;5192;50.328;7.610;2023-02-19T10:49:50;10.50;28.50
10294;DHT22;5192;50.328;7.610;2023-02-19T10:55:26;10.50;26.50
10294;DHT22;5192;50.328;7.610;2023-02-19T10:58:22;10.60;25.90
10294;DHT22;5192;50.328;7.610;2023-02-19T11:04:17;10.50;25.10
10294;DHT22;5192;50.328;7.610;2023-02-19T11:06:45;10.50;25.30
10294;DHT22;5192;50.328;7.610;2023-02-19T11:09:32;10.50;23.70
10294;DHT22;5192;50.328;7.610;2023-02-19T11:12:00;10.50;24.00
10294;DHT22;5192;50.328;7.610;2023-02-19T11:14:34;10.60;25.00
10294;DHT22;5192;50.328;7.610;2023-02-19T11:17:01;10.50;22.70
10294;DHT22;5192;50.328;7.610;2023-02-19T11:19:39;10.60;25.20
10294;DHT22;5192;50.328;7.610;2023-02-19T11:22:28;10.60;28.60
10294;DHT22;5192;50.328;7.610;2023-02-19T11:25:30;10.60;23.10
10294;DHT22;5192;50.328;7.610;2023-02-19T11:28:19;10.50;23.40
10294;DHT22;5192;50.328;7.610;2023-02-19T11:30:48;10.60;23.90
10294;DHT22;5192;50.328;7.610;2023-02-19T11:33:33;10.40;24.90
10294;DHT22;5192;50.328;7.610;2023-02-19T11:39:28;10.40;28.10
10294;DHT22;5192;50.328;7.610;2023-02-19T11:42:20;10.40;31.60
10294;DHT22;5192;50.328;7.610;2023-02-19T11:51:03;10.40;30.10
10294;DHT22;5192;50.328;7.610;2023-02-19T11:53:34;10.40;24.50
10294;DHT22;5192;50.328;7.610;2023-02-19T11:56:32;10.40;26.00
10294;DHT22;5192;50.328;7.610;2023-02-19T12:13:48;9.90;50.20
10294;DHT22;5192;50.328;7.610;2023-02-19T12:28:17;9.10;69.20
10294;DHT22;5192;50.328;7.610;2023-02-19T12:37:47;8.90;77.10
10294;DHT22;5192;50.328;7.610;2023-02-19T12:43:18;8.80;76.90
10294;DHT22;5192;50.328;7.610;2023-02-19T12:46:11;8.80;77.30
10294;DHT22;5192;50.328;7.610;2023-02-19T12:48:52;8.90;77.80
10294;DHT22;5192;50.328;7.610;2023-02-19T13:00:24;9.20;79.20
10294;DHT22;5192;50.328;7.610;2023-02-19T13:12:28;9.30;76.50
10294;DHT22;5192;50.328;7.610;2023-02-19T13:15:28;9.40;71.30
10294;DHT22;5192;50.328;7.610;2023-02-19T13:18:25;9.40;69.10
10294;DHT22;5192;50.328;7.610;2023-02-19T13:20:53;9.50;68.40
10294;DHT22;5192;50.328;7.610;2023-02-19T13:23:26;9.70;66.60
10294;DHT22;5192;50.328;7.610;2023-02-19T13:37:54;10.20;66.90
10294;DHT22;5192;50.328;7.610;2023-02-19T13:40:34;10.30;64.10
10294;DHT22;5192;50.328;7.610;2023-02-19T13:43:05;10.30;55.90
10294;DHT22;5192;50.328;7.610;2023-02-19T13:45:57;10.30;52.70
10294;DHT22;5192;50.328;7.610;2023-02-19T13:48:36;10.40;50.00
10294;DHT22;5192;50.328;7.610;2023-02-19T13:59:35;10.70;50.30
10294;DHT22;5192;50.328;7.610;2023-02-19T14:05:10;10.90;46.10
10294;DHT22;5192;50.328;7.610;2023-02-19T14:07:52;10.80;42.90
10294;DHT22;5192;50.328;7.610;2023-02-19T14:10:55;10.80;47.90
10294;DHT22;5192;50.328;7.610;2023-02-19T14:13:54;10.60;47.00
10294;DHT22;5192;50.328;7.610;2023-02-19T14:19:14;10.00;53.30
10294;DHT22;5192;50.328;7.610;2023-02-19T14:21:42;9.70;54.10
10294;DHT22;5192;50.328;7.610;2023-02-19T14:24:11;9.60;54.40
10294;DHT22;5192;50.328;7.610;2023-02-19T14:26:41;9.50;54.80
10294;DHT22;5192;50.328;7.610;2023-02-19T14:29:10;9.50;55.70
10294;DHT22;5192;50.328;7.610;2023-02-19T14:31:42;9.40;58.70
10294;DHT22;5192;50.328;7.610;2023-02-19T14:34:27;9.30;60.70
10294;DHT22;5192;50.328;7.610;2023-02-19T14:36:59;9.20;63.50
10294;DHT22;5192;50.328;7.610;2023-02-19T14:39:40;9.10;64.00
10294;DHT22;5192;50.328;7.610;2023-02-19T14:42:21;9.00;68.70
10294;DHT22;5192;50.328;7.610;2023-02-19T14:45:04;9.00;68.50
10294;DHT22;5192;50.328;7.610;2023-02-19T14:47:39;8.90;69.80
10294;DHT22;5192;50.328;7.610;2023-02-19T14:50:08;8.80;70.60
10294;DHT22;5192;50.328;7.610;2023-02-19T14:52:41;8.80;73.70
10294;DHT22;5192;50.328;7.610;2023-02-19T14:55:36;8.70;75.50
10294;DHT22;5192;50.328;7.610;2023-02-19T14:58:10;8.70;77.70
10294;DHT22;5192;50.328;7.610;2023-02-19T15:00:40;8.80;80.50
10294;DHT22;5192;50.328;7.610;2023-02-19T15:03:34;8.80;81.30
10294;DHT22;5192;50.328;7.610;2023-02-19T15:06:13;8.80;80.90
10294;DHT22;5192;50.328;7.610;2023-02-19T15:08:46;8.80;78.90
10294;DHT22;5192;50.328;7.610;2023-02-19T15:11:28;8.80;77.60
10294;DHT22;5192;50.328;7.610;2023-02-19T15:14:12;8.90;78.20
10294;DHT22;5192;50.328;7.610;2023-02-19T15:16:43;8.90;79.50
10294;DHT22;5192;50.328;7.610;2023-02-19T15:19:11;8.90;79.40
10294;DHT22;5192;50.328;7.610;2023-02-19T15:21:46;8.90;76.80
10294;DHT22;5192;50.328;7.610;2023-02-19T15:24:16;8.90;78.20
10294;DHT22;5192;50.328;7.610;2023-02-19T15:26:45;8.90;79.30
10294;DHT22;5192;50.328;7.610;2023-02-19T15:29:17;8.80;79.30
10294;DHT22;5192;50.328;7.610;2023-02-19T15:31:51;8.80;80.40
10294;DHT22;5192;50.328;7.610;2023-02-19T15:34:25;8.80;80.40
10294;DHT22;5192;50.328;7.610;2023-02-19T15:36:56;8.80;81.00
10294;DHT22;5192;50.328;7.610;2023-02-19T15:39:33;8.80;80.30
10294;DHT22;5192;50.328;7.610;2023-02-19T15:42:03;8.80;80.70
10294;DHT22;5192;50.328;7.610;2023-02-19T15:47:54;8.80;84.70
10294;DHT22;5192;50.328;7.610;2023-02-19T15:50:24;8.70;85.60
10294;DHT22;5192;50.328;7.610;2023-02-19T16:01:30;8.70;85.50
10294;DHT22;5192;50.328;7.610;2023-02-19T16:03:59;8.70;84.30
10294;DHT22;5192;50.328;7.610;2023-02-19T16:06:27;8.70;84.40
10294;DHT22;5192;50.328;7.610;2023-02-19T16:12:02;8.60;84.10
10294;DHT22;5192;50.328;7.610;2023-02-19T16:14:47;8.70;85.20
10294;DHT22;5192;50.328;7.610;2023-02-19T16:17:18;8.70;85.10
10294;DHT22;5192;50.328;7.610;2023-02-19T16:20:03;8.70;85.80
10294;DHT22;5192;50.328;7.610;2023-02-19T16:22:39;8.60;86.10
10294;DHT22;5192;50.328;7.610;2023-02-19T16:25:42;8.60;87.30
10294;DHT22;5192;50.328;7.610;2023-02-19T16:28:30;8.60;85.80
10294;DHT22;5192;50.328;7.610;2023-02-19T16:31:19;8.60;85.80
10294;DHT22;5192;50.328;7.610;2023-02-19T16:33:48;8.60;84.20
10294;DHT22;5192;50.328;7.610;2023-02-19T16:36:35;8.50;84.00
10294;DHT22;5192;50.328;7.610;2023-02-19T16:42:10;8.40;84.40
10294;DHT22;5192;50.328;7.610;2023-02-19T16:44:38;8.40;85.10
10294;DHT22;5192;50.328;7.610;2023-02-19T16:47:12;8.40;83.40
10294;DHT22;5192;50.328;7.610;2023-02-19T16:49:40;8.40;82.20
10294;DHT22;5192;50.328;7.610;2023-02-19T16:52:13;8.40;73.90
10294;DHT22;5192;50.328;7.610;2023-02-19T16:54:42;8.30;64.80
10294;DHT22;5192;50.328;7.610;2023-02-19T16:57:10;8.40;69.70
10294;DHT22;5192;50.328;7.610;2023-02-19T16:59:36;8.30;74.20
10294;DHT22;5192;50.328;7.610;2023-02-19T17:02:05;8.40;66.40
10294;DHT22;5192;50.328;7.610;2023-02-19T17:04:31;8.30;64.80
10294;DHT22;5192;50.328;7.610;2023-02-19T17:07:00;8.30;66.70
10294;DHT22;5192;50.328;7.610;2023-02-19T17:09:30;8.30;67.40
10294;DHT22;5192;50.328;7.610;2023-02-19T17:11:58;8.30;68.30
10294;DHT22;5192;50.328;7.610;2023-02-19T17:14:26;8.20;69.90
10294;DHT22;5192;50.328;7.610;2023-02-19T17:16:53;8.30;69.30
10294;DHT22;5192;50.328;7.610;2023-02-19T17:19:21;8.30;66.90
10294;DHT22;5192;50.328;7.610;2023-02-19T17:21:48;8.30;69.40
10294;DHT22;5192;50.328;7.610;2023-02-19T17:24:16;8.30;70.70
10294;DHT22;5192;50.328;7.610;2023-02-19T17:26:44;8.20;74.20
10294;DHT22;5192;50.328;7.610;2023-02-19T17:29:13;8.20;76.20
10294;DHT22;5192;50.328;7.610;2023-02-19T17:31:40;8.20;76.50
10294;DHT22;5192;50.328;7.610;2023-02-19T17:34:08;8.30;76.40
10294;DHT22;5192;50.328;7.610;2023-02-19T17:36:35;8.30;75.70
10294;DHT22;5192;50.328;7.610;2023-02-19T17:39:05;8.20;73.70
10294;DHT22;5192;50.328;7.610;2023-02-19T17:41:42;8.30;74.60
10294;DHT22;5192;50.328;7.610;2023-02-19T17:44:08;8.20;73.80
10294;DHT22;5192;50.328;7.610;2023-02-19T17:46:35;8.20;73.70
10294;DHT22;5192;50.328;7.610;2023-02-19T17:49:04;8.20;73.50
10294;DHT22;5192;50.328;7.610;2023-02-19T17:51:32;8.20;70.50
10294;DHT22;5192;50.328;7.610;2023-02-19T17:54:00;8.30;70.00
10294;DHT22;5192;50.328;7.610;2023-02-19T17:56:26;8.20;69.40
10294;DHT22;5192;50.328;7.610;2023-02-19T17:58:56;8.20;70.70
10294;DHT22;5192;50.328;7.610;2023-02-19T18:01:25;8.20;68.70
10294;DHT22;5192;50.328;7.610;2023-02-19T18:03:51;8.30;68.50
10294;DHT22;5192;50.328;7.610;2023-02-19T18:06:17;8.30;69.80
10294;DHT22;5192;50.328;7.610;2023-02-19T18:08:51;8.40;69.40
10294;DHT22;5192;50.328;7.610;2023-02-19T18:11:20;8.40;71.70
10294;DHT22;5192;50.328;7.610;2023-02-19T18:13:50;8.40;67.70
10294;DHT22;5192;50.328;7.610;2023-02-19T18:16:17;8.30;68.40
10294;DHT22;5192;50.328;7.610;2023-02-19T18:18:44;8.30;68.30
10294;DHT22;5192;50.328;7.610;2023-02-19T18:21:11;8.30;70.30
10294;DHT22;5192;50.328;7.610;2023-02-19T18:23:38;8.30;69.00
10294;DHT22;5192;50.328;7.610;2023-02-19T18:26:07;8.40;70.90
10294;DHT22;5192;50.328;7.610;2023-02-19T18:28:39;8.40;69.50
10294;DHT22;5192;50.328;7.610;2023-02-19T18:31:06;8.30;69.70
10294;DHT22;5192;50.328;7.610;2023-02-19T18:33:33;8.30;69.30
10294;DHT22;5192;50.328;7.610;2023-02-19T18:36:10;8.30;69.80
10294;DHT22;5192;50.328;7.610;2023-02-19T18:38:37;8.20;71.30
10294;DHT22;5192;50.328;7.610;2023-02-19T18:41:05;8.20;71.90
10294;DHT22;5192;50.328;7.610;2023-02-19T18:43:31;8.20;72.00
10294;DHT22;5192;50.328;7.610;2023-02-19T18:45:57;8.10;71.90
10294;DHT22;5192;50.328;7.610;2023-02-19T18:48:26;8.20;68.70
10294;DHT22;5192;50.328;7.610;2023-02-19T18:50:55;8.20;68.60